createdAt,value
2019-04-03T00:01:35.007Z,1.17
2019-04-03T00:04:04.662Z,1.37
2019-04-03T00:06:33.603Z,1.10
2019-04-03T00:09:06.430Z,1.40
2019-04-03T00:11:39.375Z,1.27
2019-04-03T00:14:12.175Z,1.30
2019-04-03T00:16:39.926Z,1.47
2019-04-03T00:19:08.259Z,1.20
2019-04-03T00:21:36.628Z,1.10
2019-04-03T00:24:07.298Z,1.27
2019-04-03T00:26:35.595Z,1.43
2019-04-03T00:29:03.921Z,1.33
2019-04-03T00:31:32.265Z,1.10
2019-04-03T00:34:00.602Z,1.20
2019-04-03T00:36:28.903Z,1.27
2019-04-03T00:38:57.172Z,1.20
2019-04-03T00:41:25.410Z,1.37
2019-04-03T00:43:54.432Z,1.50
2019-04-03T00:46:24.371Z,1.80
2019-04-03T00:48:55.330Z,1.30
2019-04-03T00:51:23.430Z,1.70
2019-04-03T00:53:51.727Z,1.30
2019-04-03T00:56:20.114Z,1.00
2019-04-03T00:58:48.406Z,1.10
2019-04-03T01:01:16.725Z,1.63
2019-04-03T01:03:45.068Z,1.10
2019-04-03T01:06:13.350Z,1.60
2019-04-03T01:08:41.632Z,1.30
2019-04-03T01:11:09.870Z,1.30
2019-04-03T01:13:38.152Z,1.33
2019-04-03T01:16:06.453Z,1.20
2019-04-03T01:18:35.391Z,1.10
2019-04-03T01:21:06.282Z,1.60
2019-04-03T01:23:33.742Z,1.20
2019-04-03T01:26:02.102Z,1.07
2019-04-03T01:28:30.363Z,1.07
2019-04-03T01:30:58.618Z,1.10
2019-04-03T01:33:26.863Z,1.50
2019-04-03T01:35:55.198Z,1.47
2019-04-03T01:38:23.486Z,1.70
2019-04-03T01:40:51.749Z,1.33
2019-04-03T01:43:19.999Z,1.33
2019-04-03T01:45:48.264Z,1.30
2019-04-03T01:48:16.494Z,1.50
2019-04-03T01:50:44.775Z,1.50
2019-04-03T01:53:13.026Z,1.40
2019-04-03T01:55:41.254Z,1.40
2019-04-03T01:58:09.527Z,1.37
2019-04-03T02:00:38.188Z,1.50
2019-04-03T02:03:06.773Z,1.50
2019-04-03T02:05:36.509Z,1.00
2019-04-03T02:08:04.910Z,1.30
2019-04-03T02:10:33.210Z,1.70
2019-04-03T02:13:01.453Z,1.57
2019-04-03T02:15:29.765Z,1.30
2019-04-03T02:17:58.009Z,1.53
2019-04-03T02:20:27.149Z,1.00
2019-04-03T02:22:55.472Z,1.50
2019-04-03T02:25:23.768Z,1.40
2019-04-03T02:27:52.019Z,1.30
2019-04-03T02:30:20.519Z,1.20
2019-04-03T02:32:48.942Z,1.23
2019-04-03T02:35:17.233Z,1.53
2019-04-03T02:37:48.691Z,1.90
2019-04-03T02:40:15.930Z,1.07
2019-04-03T02:42:44.534Z,1.17
2019-04-03T02:45:13.196Z,1.33
2019-04-03T02:47:41.525Z,0.90
2019-04-03T02:50:13.985Z,1.90
2019-04-03T02:52:39.784Z,1.50
2019-04-03T02:55:08.551Z,1.70
2019-04-03T02:57:37.137Z,1.20
2019-04-03T03:00:07.678Z,1.23
2019-04-03T03:02:35.918Z,1.53
2019-04-03T03:05:05.044Z,1.50
2019-04-03T03:07:35.790Z,1.13
2019-04-03T03:10:03.506Z,1.30
2019-04-03T03:12:32.099Z,1.70
2019-04-03T03:15:00.638Z,1.40
2019-04-03T03:17:28.964Z,2.13
2019-04-03T03:19:57.254Z,1.57
2019-04-03T03:22:25.538Z,2.00
2019-04-03T03:24:53.928Z,1.80
2019-04-03T03:27:22.305Z,1.70
2019-04-03T03:29:50.542Z,1.77
2019-04-03T03:32:28.528Z,1.53
2019-04-03T03:34:57.314Z,2.10
2019-04-03T03:37:18.864Z,2.10
2019-04-03T03:39:47.136Z,1.73
2019-04-03T03:42:15.390Z,1.60
2019-04-03T03:44:45.942Z,1.77
2019-04-03T03:47:13.695Z,1.90
2019-04-03T03:49:42.265Z,1.77
2019-04-03T03:52:10.471Z,1.67
2019-04-03T03:54:38.892Z,1.67
2019-04-03T03:57:07.496Z,2.20
2019-04-03T03:59:36.063Z,1.57
2019-04-03T04:02:06.084Z,1.40
2019-04-03T04:04:34.333Z,1.77
2019-04-03T04:07:04.521Z,1.53
2019-04-03T04:09:32.641Z,2.00
2019-04-03T04:12:04.581Z,2.17
2019-04-03T04:14:30.868Z,1.90
2019-04-03T04:16:59.124Z,1.60
2019-04-03T04:19:30.580Z,1.97
2019-04-03T04:21:57.487Z,1.70
2019-04-03T04:24:27.728Z,2.00
2019-04-03T04:26:55.781Z,1.93
2019-04-03T04:29:24.178Z,1.70
2019-04-03T04:31:52.526Z,2.43
2019-04-03T04:34:20.794Z,1.70
2019-04-03T04:36:49.086Z,1.23
2019-04-03T04:39:17.338Z,1.90
2019-04-03T04:41:45.781Z,2.00
2019-04-03T04:44:15.064Z,1.97
2019-04-03T04:46:44.509Z,1.40
2019-04-03T04:49:13.208Z,2.00
2019-04-03T04:51:41.451Z,2.03
2019-04-03T04:54:09.733Z,1.70
2019-04-03T04:56:38.447Z,2.30
2019-04-03T04:59:06.835Z,1.60
2019-04-03T05:01:35.060Z,1.97
2019-04-03T05:04:03.335Z,1.80
2019-04-03T05:06:31.658Z,1.93
2019-04-03T05:08:59.938Z,2.10
2019-04-03T05:11:28.181Z,2.20
2019-04-03T05:13:56.610Z,1.67
2019-04-03T05:16:25.624Z,1.87
2019-04-03T05:18:54.010Z,1.77
2019-04-03T05:21:22.404Z,1.73
2019-04-03T05:23:50.821Z,2.40
2019-04-03T05:26:21.048Z,1.80
2019-04-03T05:28:57.176Z,1.80
2019-04-03T05:31:19.017Z,2.30
2019-04-03T05:33:47.304Z,2.00
2019-04-03T05:36:17.765Z,2.60
2019-04-03T05:38:45.531Z,1.90
2019-04-03T05:41:13.891Z,1.40
2019-04-03T05:43:42.143Z,2.27
2019-04-03T05:46:11.433Z,2.50
2019-04-03T05:48:39.703Z,2.40
2019-04-03T05:51:07.982Z,1.97
2019-04-03T05:53:37.222Z,2.87
2019-04-03T05:56:06.290Z,2.40
2019-04-03T05:58:34.534Z,1.93
2019-04-03T06:01:06.238Z,2.40
2019-04-03T06:03:42.170Z,2.90
2019-04-03T06:06:02.977Z,2.37
2019-04-03T06:08:34.054Z,3.70
2019-04-03T06:11:03.508Z,4.20
2019-04-03T06:13:31.404Z,3.77
2019-04-03T06:15:59.639Z,4.73
2019-04-03T06:18:31.029Z,4.20
2019-04-03T06:20:57.886Z,3.47
2019-04-03T06:23:26.391Z,3.60
2019-04-03T06:25:54.883Z,3.60
2019-04-03T06:28:23.433Z,4.60
2019-04-03T06:30:51.699Z,3.23
2019-04-03T06:33:19.950Z,3.67
2019-04-03T06:35:48.213Z,3.40
2019-04-03T06:38:16.986Z,4.03
2019-04-03T06:40:45.286Z,3.40
2019-04-03T06:43:13.560Z,4.20
2019-04-03T06:45:43.876Z,4.43
2019-04-03T06:48:11.842Z,4.27
2019-04-03T06:50:40.194Z,3.77
2019-04-03T06:53:08.538Z,3.17
2019-04-03T06:55:36.797Z,3.63
2019-04-03T06:58:05.294Z,3.03
2019-04-03T07:00:33.610Z,3.80
2019-04-03T07:03:03.830Z,3.73
2019-04-03T07:05:31.992Z,3.17
2019-04-03T07:08:00.826Z,3.83
2019-04-03T07:10:29.497Z,2.93
2019-04-03T07:12:57.757Z,2.97
2019-04-03T07:15:26.318Z,3.53
2019-04-03T07:17:54.866Z,3.60
2019-04-03T07:20:23.138Z,3.83
2019-04-03T07:22:51.392Z,2.57
2019-04-03T07:25:19.684Z,3.30
2019-04-03T07:27:48.001Z,3.10
2019-04-03T07:30:17.591Z,3.03
2019-04-03T07:32:46.378Z,3.07
2019-04-03T07:35:14.637Z,2.37
2019-04-03T07:37:43.164Z,3.37
2019-04-03T07:40:11.426Z,3.03
2019-04-03T07:42:39.684Z,2.70
2019-04-03T07:45:08.010Z,1.97
2019-04-03T07:47:36.304Z,3.07
2019-04-03T07:50:06.684Z,2.20
2019-04-03T07:52:35.006Z,2.10
2019-04-03T07:55:03.294Z,2.10
2019-04-03T07:57:31.638Z,2.27
2019-04-03T07:59:59.962Z,1.83
2019-04-03T08:02:28.307Z,1.60
2019-04-03T08:04:59.351Z,1.80
2019-04-03T08:07:26.847Z,1.77
2019-04-03T08:09:57.361Z,1.70
2019-04-03T08:12:25.289Z,1.27
2019-04-03T08:14:53.806Z,2.07
2019-04-03T08:17:22.218Z,1.00
2019-04-03T08:19:50.496Z,1.60
2019-04-03T08:22:18.798Z,1.73
2019-04-03T08:24:47.029Z,1.90
2019-04-03T08:27:15.290Z,1.03
2019-04-03T08:29:43.570Z,1.60
2019-04-03T08:32:11.908Z,1.10
2019-04-03T08:34:40.193Z,1.20
2019-04-03T08:37:10.371Z,1.50
2019-04-03T08:39:38.457Z,1.40
2019-04-03T08:42:07.032Z,1.10
2019-04-03T08:44:36.072Z,1.20
2019-04-03T08:47:04.435Z,2.00
2019-04-03T08:49:32.699Z,1.57
2019-04-03T08:52:00.945Z,1.10
2019-04-03T08:54:29.225Z,1.10
2019-04-03T08:56:57.452Z,1.20
2019-04-03T08:59:26.795Z,1.07
2019-04-03T09:01:56.160Z,1.30
2019-04-03T09:04:24.531Z,0.90
2019-04-03T09:06:54.163Z,0.80
2019-04-03T09:09:22.988Z,1.23
2019-04-03T09:11:51.266Z,1.37
2019-04-03T09:14:20.356Z,0.97
2019-04-03T09:16:48.789Z,1.17
2019-04-03T09:19:17.704Z,1.17
2019-04-03T09:21:50.231Z,0.87
2019-04-03T09:24:15.957Z,1.53
2019-04-03T09:26:44.287Z,1.37
2019-04-03T09:29:13.669Z,0.93
2019-04-03T09:31:42.027Z,1.37
2019-04-03T09:34:10.350Z,0.93
2019-04-03T09:36:38.638Z,1.47
2019-04-03T09:39:09.065Z,1.20
2019-04-03T09:41:37.434Z,1.00
2019-04-03T09:44:05.694Z,0.93
2019-04-03T09:46:33.919Z,1.13
2019-04-03T09:49:02.450Z,1.00
2019-04-03T09:51:30.742Z,0.97
2019-04-03T09:53:59.035Z,1.10
2019-04-03T09:56:27.338Z,1.03
2019-04-03T09:58:56.658Z,0.90
2019-04-03T10:01:25.033Z,0.70
2019-04-03T10:03:55.355Z,0.90
2019-04-03T10:06:23.322Z,0.93
2019-04-03T10:08:51.588Z,0.77
2019-04-03T10:11:20.839Z,0.80
2019-04-03T10:13:49.387Z,0.70
2019-04-03T10:16:17.607Z,0.60
2019-04-03T10:18:45.908Z,0.87
2019-04-03T10:21:14.133Z,0.80
2019-04-03T10:23:42.366Z,0.80
2019-04-03T10:26:11.022Z,0.87
2019-04-03T10:28:42.097Z,0.80
2019-04-03T10:31:09.496Z,0.80
2019-04-03T10:33:37.798Z,0.97
2019-04-03T10:36:06.073Z,1.03
2019-04-03T10:38:34.319Z,0.73
2019-04-03T10:41:02.946Z,1.10
2019-04-03T10:43:31.222Z,0.70
2019-04-03T10:45:59.638Z,0.80
2019-04-03T10:48:28.698Z,0.80
2019-04-03T10:50:57.452Z,0.80
2019-04-03T10:53:25.762Z,0.70
2019-04-03T10:55:54.031Z,0.87
2019-04-03T10:58:22.532Z,0.90
2019-04-03T11:00:51.133Z,1.10
2019-04-03T11:03:19.648Z,0.70
2019-04-03T11:05:47.933Z,0.70
2019-04-03T11:08:16.193Z,0.60
2019-04-03T11:10:44.484Z,0.73
2019-04-03T11:13:12.758Z,0.90
2019-04-03T11:15:43.599Z,0.90
2019-04-03T11:18:11.145Z,1.00
2019-04-03T11:20:41.012Z,0.60
2019-04-03T11:23:09.654Z,0.50
2019-04-03T11:25:40.940Z,1.03
2019-04-03T11:28:08.102Z,0.83
2019-04-03T11:30:36.439Z,1.20
2019-04-03T11:33:04.806Z,0.90
2019-04-03T11:35:33.130Z,0.77
2019-04-03T11:38:12.127Z,0.90
2019-04-03T11:40:31.364Z,0.80
2019-04-03T11:42:59.831Z,0.70
2019-04-03T11:45:28.282Z,0.93
2019-04-03T11:47:56.839Z,0.87
2019-04-03T11:50:25.555Z,0.83
2019-04-03T11:52:54.293Z,1.10
2019-04-03T11:55:22.592Z,0.80
2019-04-03T11:57:50.890Z,1.10
2019-04-03T12:00:20.915Z,1.30
2019-04-03T12:02:49.290Z,0.70
2019-04-03T12:05:20.753Z,0.63
2019-04-03T12:07:47.916Z,0.80
2019-04-03T12:10:16.321Z,0.97
2019-04-03T12:12:44.800Z,0.80
2019-04-03T12:15:16.104Z,1.17
2019-04-03T12:17:43.183Z,0.77
2019-04-03T12:20:11.954Z,0.73
2019-04-03T12:22:41.116Z,0.90
2019-04-03T12:25:09.386Z,0.77
2019-04-03T12:27:37.678Z,0.83
2019-04-03T12:30:09.324Z,1.20
2019-04-03T12:32:42.964Z,0.90
2019-04-03T12:35:10.179Z,1.23
2019-04-03T12:37:38.116Z,1.13
2019-04-03T12:40:07.224Z,1.27
2019-04-03T12:42:35.773Z,1.27
2019-04-03T12:45:05.338Z,1.00
2019-04-03T12:47:33.628Z,0.97
2019-04-03T12:50:02.090Z,0.90
2019-04-03T12:52:30.760Z,1.00
2019-04-03T12:54:59.691Z,1.30
2019-04-03T12:57:28.034Z,1.50
2019-04-03T12:59:56.630Z,1.33
2019-04-03T13:02:24.953Z,1.37
2019-04-03T13:04:53.206Z,1.30
2019-04-03T13:07:21.506Z,1.73
2019-04-03T13:09:49.819Z,1.60
2019-04-03T13:12:20.361Z,1.93
2019-04-03T13:14:49.128Z,1.33
2019-04-03T13:17:17.834Z,1.37
2019-04-03T13:19:46.301Z,2.80
2019-04-03T13:22:17.639Z,1.33
2019-04-03T13:24:47.381Z,1.50
2019-04-03T13:27:14.603Z,1.97
2019-04-03T13:29:42.882Z,1.50
2019-04-03T13:32:11.131Z,1.30
2019-04-03T13:34:41.447Z,1.73
2019-04-03T13:37:09.605Z,1.60
2019-04-03T13:39:38.308Z,1.73
2019-04-03T13:42:06.553Z,1.30
2019-04-03T13:44:35.371Z,1.33
2019-04-03T13:47:04.224Z,1.70
2019-04-03T13:49:32.566Z,1.37
2019-04-03T13:52:05.506Z,1.63
2019-04-03T13:54:30.781Z,1.80
2019-04-03T13:56:59.036Z,1.70
2019-04-03T13:59:27.312Z,1.37
2019-04-03T14:01:55.606Z,1.17
2019-04-03T14:04:24.075Z,1.40
2019-04-03T14:06:52.676Z,1.40
2019-04-03T14:09:21.666Z,1.50
2019-04-03T14:11:50.201Z,1.90
2019-04-03T14:14:18.876Z,2.30
2019-04-03T14:16:47.666Z,2.03
2019-04-03T14:19:15.999Z,1.60
2019-04-03T14:21:44.295Z,1.70
2019-04-03T14:24:12.682Z,1.43
2019-04-03T14:26:41.030Z,1.37
2019-04-03T14:29:09.445Z,2.03
2019-04-03T14:31:38.224Z,1.80
2019-04-03T14:34:06.710Z,1.60
2019-04-03T14:36:34.978Z,1.43
2019-04-03T14:39:07.152Z,1.73
2019-04-03T14:41:35.883Z,2.10
2019-04-03T14:44:06.963Z,1.97
2019-04-03T14:46:34.693Z,1.50
2019-04-03T14:49:03.729Z,2.17
2019-04-03T14:51:32.127Z,2.37
2019-04-03T14:54:00.443Z,2.20
2019-04-03T14:56:30.367Z,2.30
2019-04-03T14:58:59.517Z,1.60
2019-04-03T15:01:28.198Z,2.03
2019-04-03T15:04:00.067Z,2.00
2019-04-03T15:06:26.874Z,2.73
2019-04-03T15:08:55.491Z,3.10
2019-04-03T15:11:24.116Z,2.80
2019-04-03T15:13:52.444Z,2.00
2019-04-03T15:16:21.016Z,2.90
2019-04-03T15:18:49.261Z,2.30
2019-04-03T15:21:17.866Z,3.30
2019-04-03T15:23:46.304Z,3.47
2019-04-03T15:26:14.720Z,3.30
2019-04-03T15:28:43.124Z,2.50
2019-04-03T15:31:13.281Z,3.17
2019-04-03T15:33:41.405Z,2.70
2019-04-03T15:36:10.036Z,3.47
2019-04-03T15:38:38.333Z,3.30
2019-04-03T15:41:06.854Z,2.70
2019-04-03T15:43:35.200Z,2.20
2019-04-03T15:46:03.863Z,2.57
2019-04-03T15:48:32.609Z,4.30
2019-04-03T15:51:00.878Z,4.43
2019-04-03T15:53:29.157Z,3.90
2019-04-03T15:55:57.430Z,2.73
2019-04-03T15:58:26.622Z,5.13
2019-04-03T16:00:56.060Z,3.90
2019-04-03T16:03:24.449Z,3.07
2019-04-03T16:05:53.079Z,3.10
2019-04-03T16:08:21.327Z,7.60
2019-04-03T16:10:49.623Z,5.33
2019-04-03T16:13:20.769Z,3.20
2019-04-03T16:15:47.935Z,3.30
2019-04-03T16:18:16.214Z,2.37
2019-04-03T16:20:44.805Z,3.10
2019-04-03T16:23:13.145Z,2.50
2019-04-03T16:25:41.428Z,2.50
2019-04-03T16:28:10.064Z,2.97
2019-04-03T16:30:39.811Z,2.40
2019-04-03T16:33:18.963Z,3.27
2019-04-03T16:35:38.097Z,3.10
2019-04-03T16:38:06.358Z,2.13
2019-04-03T16:40:37.030Z,2.93
2019-04-03T16:43:04.629Z,3.57
2019-04-03T16:45:32.913Z,2.50
